Time;durP1;ratioP1;P1;durP2;ratioP2;P2;SDS_P1;SDS_P2;PMS_P1;PMS_P2;Temp;Humidity;BMP_temperature;BMP_pressure;BME280_temperature;BME280_humidity;BME280_pressure;Samples;Min_cycle;Max_cycle;Signal;HPM_P1;HPM_P2
2023/06/15 00:02:10;;;;;;;6.25;5.65;;;;;;;17.11;85.01;96306.72;5116248;28;20079;-67
2023/06/15 00:04:37;;;;;;;6.97;5.00;;;;;;;17.02;85.55;96308.19;5116183;28;20079;-66
2023/06/15 00:07:04;;;;;;;8.73;4.43;;;;;;;17.04;85.69;96312.41;5116279;28;20043;-68
2023/06/15 00:09:31;;;;;;;7.00;4.88;;;;;;;17.08;85.46;96314.88;5116208;28;20124;-68
2023/06/15 00:11:58;;;;;;;6.75;4.85;;;;;;;17.12;86.04;96319.84;5116270;28;20074;-69
2023/06/15 00:14:25;;;;;;;6.95;5.53;;;;;;;17.15;85.82;96317.00;5116110;28;20127;-68
2023/06/15 00:16:54;;;;;;;6.75;5.18;;;;;;;17.16;85.53;96320.50;5116058;28;20091;-69
2023/06/15 00:19:22;;;;;;;5.95;5.00;;;;;;;17.17;85.69;96315.09;5115950;28;20051;-68
2023/06/15 00:21:53;;;;;;;5.93;5.03;;;;;;;17.20;85.54;96310.53;5116034;28;20130;-68
2023/06/15 00:24:20;;;;;;;6.28;4.88;;;;;;;17.11;85.64;96317.31;5115490;28;20474;-69
2023/06/15 00:26:47;;;;;;;9.02;4.97;;;;;;;17.03;86.14;96301.94;5115917;28;20477;-66
2023/06/15 00:29:14;;;;;;;8.82;5.35;;;;;;;16.96;86.38;96304.16;5115721;28;20122;-66
2023/06/15 00:31:41;;;;;;;5.63;5.13;;;;;;;16.86;86.99;96301.28;5115639;28;20472;-65
2023/06/15 00:34:10;;;;;;;5.65;5.15;;;;;;;16.86;87.36;96301.28;5115693;28;20086;-69
2023/06/15 00:36:37;;;;;;;8.00;5.25;;;;;;;16.83;87.37;96301.50;5115512;28;20058;-68
2023/06/15 00:39:04;;;;;;;5.75;5.03;;;;;;;16.79;87.37;96303.50;5115573;28;20054;-66
2023/06/15 00:41:31;;;;;;;8.13;5.15;;;;;;;16.80;87.37;96304.34;5115267;28;20085;-66
2023/06/15 00:43:58;;;;;;;5.20;4.70;;;;;;;16.74;88.04;96299.47;5115397;28;20040;-68
2023/06/15 00:46:25;;;;;;;5.68;4.90;;;;;;;16.72;88.26;96296.09;5115331;28;20468;-68
2023/06/15 00:48:52;;;;;;;5.65;5.13;;;;;;;16.58;88.54;96303.13;5115519;28;20044;-69
2023/06/15 00:51:21;;;;;;;7.47;5.50;;;;;;;16.50;88.87;96294.88;5115400;27;20121;-65
2023/06/15 00:53:48;;;;;;;6.65;5.55;;;;;;;16.49;88.90;96301.94;5115344;28;20100;-66
2023/06/15 00:56:17;;;;;;;6.25;5.65;;;;;;;16.42;89.13;96298.88;5115254;28;20048;-68
2023/06/15 00:58:44;;;;;;;5.95;5.40;;;;;;;16.39;89.69;96293.78;5115209;28;20091;-65
2023/06/15 01:01:11;;;;;;;5.60;5.10;;;;;;;16.47;88.96;96300.34;5115113;28;20096;-68
2023/06/15 01:03:40;;;;;;;7.97;5.43;;;;;;;16.49;88.24;96291.38;5115008;28;20188;-66
2023/06/15 01:06:10;;;;;;;11.57;5.22;;;;;;;16.55;87.61;96295.41;5114990;28;20048;-67
2023/06/15 01:08:40;;;;;;;9.00;5.45;;;;;;;16.50;86.95;96292.25;5114957;28;20044;-68
2023/06/15 01:11:07;;;;;;;10.75;6.18;;;;;;;16.46;87.05;96286.31;5115168;28;20048;-66
2023/06/15 01:13:36;;;;;;;7.78;5.05;;;;;;;16.47;86.44;96289.81;5115001;28;20043;-69
2023/06/15 01:16:07;;;;;;;6.10;5.35;;;;;;;16.40;85.83;96291.97;5114838;28;20552;-65
2023/06/15 01:18:36;;;;;;;11.15;5.00;;;;;;;16.35;85.91;96294.94;5114859;28;20108;-67
2023/06/15 01:21:06;;;;;;;7.10;5.35;;;;;;;16.39;86.12;96285.88;5114800;28;20085;-69
2023/06/15 01:23:40;;;;;;;12.35;5.47;;;;;;;16.37;85.64;96284.25;5114864;28;20051;-66
2023/06/15 01:26:11;;;;;;;7.00;5.18;;;;;;;16.28;85.35;96289.22;5114679;28;20048;-66
2023/06/15 01:28:41;;;;;;;7.57;5.32;;;;;;;16.25;85.67;96283.28;5114666;28;20485;-67
2023/06/15 01:31:10;;;;;;;7.97;5.20;;;;;;;16.18;85.73;96293.41;5114538;28;20090;-66
2023/06/15 01:33:45;;;;;;;23.33;6.28;;;;;;;16.14;84.87;96290.09;5114553;28;20453;-66
2023/06/15 01:36:12;;;;;;;5.55;5.05;;;;;;;16.08;85.07;96300.22;5113810;28;20054;-65
2023/06/15 01:38:40;;;;;;;8.10;5.22;;;;;;;16.02;85.55;96290.91;5114516;28;20108;-65
2023/06/15 01:41:09;;;;;;;7.95;4.90;;;;;;;15.93;85.40;96294.94;5114215;28;20057;-68
2023/06/15 01:43:39;;;;;;;8.60;4.93;;;;;;;15.79;85.76;96287.91;5114334;28;20048;-66
2023/06/15 01:46:07;;;;;;;5.80;5.25;;;;;;;15.73;86.46;96293.56;5114258;28;20127;-68
2023/06/15 01:48:34;;;;;;;9.60;5.15;;;;;;;15.65;86.47;96294.88;5114352;28;20047;-68
2023/06/15 01:51:03;;;;;;;8.27;5.57;;;;;;;15.63;86.45;96290.66;5114326;28;20378;-68
2023/06/15 01:53:31;;;;;;;10.40;5.13;;;;;;;15.60;86.37;96288.22;5114232;28;20071;-68
2023/06/15 01:56:00;;;;;;;8.15;5.00;;;;;;;15.63;86.21;96290.66;5114208;28;20438;-69
2023/06/15 01:58:29;;;;;;;5.63;4.75;;;;;;;15.63;86.18;96291.50;5114129;28;20390;-67
2023/06/15 02:00:56;;;;;;;5.45;4.90;;;;;;;15.63;86.02;96296.75;5114076;28;20048;-67
2023/06/15 02:03:23;;;;;;;8.07;4.75;;;;;;;15.65;85.34;96289.63;5113991;28;20089;-69
2023/06/15 02:05:50;;;;;;;7.95;4.63;;;;;;;15.65;85.05;96288.75;5114061;28;20047;-66
2023/06/15 02:08:17;;;;;;;5.15;4.50;;;;;;;15.62;84.70;96281.91;5113913;28;20130;-65
2023/06/15 02:10:44;;;;;;;5.60;4.35;;;;;;;15.59;84.40;96292.63;5113943;28;20126;-68
2023/06/15 02:13:12;;;;;;;6.65;5.85;;;;;;;15.57;85.33;96294.53;5113876;28;20075;-67
2023/06/15 02:15:41;;;;;;;7.32;5.07;;;;;;;15.55;85.03;96288.50;5113739;28;20039;-67
2023/06/15 02:18:14;;;;;;;8.88;5.40;;;;;;;15.57;85.07;96288.41;5113755;28;20074;-66
2023/06/15 02:20:41;;;;;;;6.13;4.90;;;;;;;15.52;84.74;96286.91;5113846;28;20082;-67
2023/06/15 02:23:09;;;;;;;9.75;4.63;;;;;;;15.52;84.59;96294.81;5113698;28;20047;-67
2023/06/15 02:25:36;;;;;;;10.10;4.65;;;;;;;15.52;84.32;96289.53;5113655;28;20043;-68
2023/06/15 02:28:03;;;;;;;9.82;5.10;;;;;;;15.52;84.05;96286.06;5113728;28;20044;-67
2023/06/15 02:30:30;;;;;;;6.25;4.78;;;;;;;15.45;84.12;96284.75;5113726;28;20404;-65
2023/06/15 02:33:00;;;;;;;8.80;4.43;;;;;;;15.37;84.38;96282.56;5113506;28;20044;-68
2023/06/15 02:35:27;;;;;;;6.00;4.60;;;;;;;15.28;84.03;96286.63;5113459;28;20092;-66
2023/06/15 02:37:54;;;;;;;5.18;4.68;;;;;;;15.21;84.21;96285.31;5113553;28;20312;-66
2023/06/15 02:40:21;;;;;;;4.80;4.40;;;;;;;15.19;84.38;96281.91;5113130;28;20048;-66
2023/06/15 02:42:48;;;;;;;10.93;4.93;;;;;;;15.15;84.48;96279.47;5113494;28;20123;-66
2023/06/15 02:45:15;;;;;;;5.38;4.88;;;;;;;15.16;84.84;96278.53;5113463;28;20073;-67
2023/06/15 02:47:42;;;;;;;8.38;5.05;;;;;;;15.16;85.40;96281.16;5116395;28;20126;-67
2023/06/15 02:50:11;;;;;;;6.65;5.28;;;;;;;15.15;85.23;96279.47;5117614;28;20508;-67
2023/06/15 02:52:40;;;;;;;8.98;4.57;;;;;;;15.17;85.46;96274.09;5117578;28;20093;-68
2023/06/15 02:55:08;;;;;;;8.88;4.80;;;;;;;15.14;85.62;96275.13;5117456;28;20543;-66
2023/06/15 02:57:36;;;;;;;13.90;4.82;;;;;;;15.13;85.23;96276.09;5117460;28;20501;-66
2023/06/15 03:00:05;;;;;;;6.95;5.30;;;;;;;15.12;85.40;96276.19;5117659;28;20051;-66
2023/06/15 03:02:32;;;;;;;10.45;4.63;;;;;;;15.10;85.71;96280.69;5117617;28;20062;-66
2023/06/15 03:04:59;;;;;;;7.10;4.60;;;;;;;15.11;85.29;96283.22;5117374;27;20412;-65
2023/06/15 03:07:30;;;;;;;6.20;4.55;;;;;;;15.14;85.36;96285.66;5117397;28;20048;-66
2023/06/15 03:09:57;;;;;;;5.50;4.68;;;;;;;15.16;85.15;96291.72;5117442;28;20055;-68
2023/06/15 03:12:24;;;;;;;5.10;4.60;;;;;;;15.19;84.85;96295.06;5117369;27;20138;-67
2023/06/15 03:14:52;;;;;;;9.80;4.82;;;;;;;15.19;84.66;96293.31;5117256;28;20085;-68
2023/06/15 03:17:21;;;;;;;9.60;5.38;;;;;;;15.18;84.91;96291.63;5117135;28;20050;-66
2023/06/15 03:19:48;;;;;;;8.30;4.88;;;;;;;15.25;85.34;96286.81;5117068;28;20492;-66
2023/06/15 03:22:16;;;;;;;6.95;5.18;;;;;;;15.26;86.08;96289.34;5117087;28;20051;-66
2023/06/15 03:24:44;;;;;;;5.40;4.90;;;;;;;15.30;86.13;96287.38;5117080;28;20051;-66
2023/06/15 03:27:12;;;;;;;8.48;5.32;;;;;;;15.34;86.40;96290.66;5116800;28;20044;-66
2023/06/15 03:29:39;;;;;;;5.57;5.07;;;;;;;15.49;86.48;96287.09;5116977;28;20054;-67
2023/06/15 03:32:07;;;;;;;4.38;4.00;;;;;;;15.71;86.07;96290.19;5117083;28;20473;-66
2023/06/15 03:34:37;;;;;;;5.88;3.88;;;;;;;15.91;83.19;96292.41;5117054;27;20433;-66
2023/06/15 03:37:05;;;;;;;5.47;4.10;;;;;;;16.11;82.49;96290.31;5116699;28;20051;-65
2023/06/15 03:39:32;;;;;;;8.07;3.60;;;;;;;16.39;81.20;96282.38;5116793;28;20083;-67
2023/06/15 03:42:01;;;;;;;6.40;3.72;;;;;;;16.67;79.84;96281.41;5116564;28;20128;-66
2023/06/15 03:44:28;;;;;;;4.53;3.58;;;;;;;16.98;78.50;96277.63;5116733;28;20058;-66
2023/06/15 03:46:56;;;;;;;4.00;3.53;;;;;;;17.33;76.86;96284.94;5116658;28;20097;-66
2023/06/15 03:49:23;;;;;;;8.75;4.00;;;;;;;17.65;76.26;96276.56;5116506;28;20043;-66
2023/06/15 03:51:50;;;;;;;4.72;3.15;;;;;;;18.03;74.47;96277.41;5116639;28;20386;-66
2023/06/15 03:54:17;;;;;;;4.93;3.25;;;;;;;18.47;73.74;96279.56;5116520;28;20055;-67
2023/06/15 03:56:45;;;;;;;6.68;2.97;;;;;;;18.93;69.79;96279.72;5116440;28;20056;-67
2023/06/15 03:59:13;;;;;;;5.38;3.50;;;;;;;19.31;69.18;96283.06;5115599;28;20071;-66
2023/06/15 04:01:42;;;;;;;5.85;3.03;;;;;;;19.74;67.79;96280.66;5116364;28;20051;-66
2023/06/15 04:04:10;;;;;;;3.97;3.17;;;;;;;20.07;66.06;96284.25;5116331;28;20097;-66
2023/06/15 04:06:37;;;;;;;3.25;3.00;;;;;;;20.32;65.74;96287.56;5116472;28;20118;-66
2023/06/15 04:09:05;;;;;;;3.45;3.05;;;;;;;20.54;64.44;96288.44;5116147;28;20123;-68
2023/06/15 04:11:32;;;;;;;3.50;3.05;;;;;;;20.82;63.37;96281.69;5116071;28;20040;-66
2023/06/15 04:13:59;;;;;;;5.90;3.22;;;;;;;21.11;63.05;96285.53;5116092;28;20090;-68
2023/06/15 04:16:28;;;;;;;4.90;3.88;;;;;;;21.40;62.30;96292.00;5115895;27;20040;-67
2023/06/15 04:18:55;;;;;;;6.07;3.35;;;;;;;21.73;61.38;96295.34;5115985;28;20096;-67
2023/06/15 04:21:23;;;;;;;4.47;3.20;;;;;;;22.02;60.56;96299.94;5115792;28;20467;-68
2023/06/15 04:23:50;;;;;;;3.67;3.10;;;;;;;22.32;59.37;96302.66;5115789;28;20127;-66
2023/06/15 04:26:19;;;;;;;3.78;2.85;;;;;;;22.62;59.25;96303.56;5115866;28;20052;-66
2023/06/15 04:28:49;;;;;;;4.45;3.20;;;;;;;22.92;58.14;96296.41;5115730;28;20138;-66
2023/06/15 04:31:17;;;;;;;4.35;3.00;;;;;;;23.21;57.62;96297.34;5115798;28;20441;-68
2023/06/15 04:33:46;;;;;;;7.10;3.33;;;;;;;23.52;56.60;96294.47;5115725;28;20040;-66
2023/06/15 04:36:13;;;;;;;7.43;2.92;;;;;;;23.81;56.11;96300.69;5115624;28;20133;-67
2023/06/15 04:38:46;;;;;;;4.30;3.28;;;;;;;24.06;55.02;96304.50;5115643;27;20125;-67
2023/06/15 04:41:14;;;;;;;7.63;3.53;;;;;;;24.31;54.40;96299.44;5115426;28;20047;-67
2023/06/15 04:43:42;;;;;;;3.13;2.83;;;;;;;24.58;54.61;96304.88;5115445;28;20040;-67
2023/06/15 04:46:09;;;;;;;4.95;3.50;;;;;;;24.79;52.90;96309.06;5115455;28;20047;-66
2023/06/15 04:48:36;;;;;;;3.83;3.47;;;;;;;25.00;53.06;96311.47;5115503;28;20079;-67
2023/06/15 04:51:05;;;;;;;4.53;3.40;;;;;;;25.24;53.34;96309.97;5115322;28;20405;-67
2023/06/15 04:53:32;;;;;;;4.93;3.00;;;;;;;25.47;52.41;96309.44;5115480;28;20039;-66
2023/06/15 04:55:59;;;;;;;3.13;2.92;;;;;;;25.72;51.58;96307.78;5115371;28;20044;-66
2023/06/15 04:58:26;;;;;;;5.10;3.30;;;;;;;25.94;51.74;96312.69;5115260;28;20051;-67
2023/06/15 05:00:54;;;;;;;4.22;3.10;;;;;;;26.14;50.19;96315.13;5115286;28;20083;-67
2023/06/15 05:03:21;;;;;;;4.43;3.13;;;;;;;26.25;50.34;96317.53;5115115;28;20055;-66
2023/06/15 05:05:49;;;;;;;5.65;3.72;;;;;;;26.28;49.30;96319.88;5115083;28;20134;-66
2023/06/15 05:08:17;;;;;;;6.05;3.22;;;;;;;26.57;49.79;96326.66;5115044;28;20058;-66
2023/06/15 05:10:44;;;;;;;5.28;3.85;;;;;;;26.79;48.48;96328.88;5113965;28;20053;-67
2023/06/15 05:13:11;;;;;;;8.60;3.65;;;;;;;26.97;48.31;96324.19;5114887;28;20090;-67
2023/06/15 05:15:38;;;;;;;8.18;4.15;;;;;;;27.22;48.17;96318.88;5114958;28;20047;-67
2023/06/15 05:18:06;;;;;;;8.15;4.65;;;;;;;27.36;48.15;96316.50;5114725;28;20051;-67
2023/06/15 05:20:33;;;;;;;9.77;4.18;;;;;;;27.52;48.41;96312.94;5114690;28;20048;-67
2023/06/15 05:23:00;;;;;;;5.82;4.03;;;;;;;27.60;48.26;96315.59;5114752;28;20093;-67
2023/06/15 05:25:28;;;;;;;7.55;3.88;;;;;;;27.67;47.28;96310.41;5114691;28;20050;-67
2023/06/15 05:27:55;;;;;;;4.18;3.72;;;;;;;27.90;47.67;96315.03;5114523;28;20127;-67
2023/06/15 05:30:26;;;;;;;3.92;3.58;;;;;;;28.07;46.72;96325.72;5114696;28;20112;-67
2023/06/15 05:32:53;;;;;;;3.85;3.45;;;;;;;28.29;46.15;96331.34;5114628;28;20040;-66
2023/06/15 05:35:20;;;;;;;4.20;3.80;;;;;;;28.50;46.18;96330.72;5114630;28;20051;-66
2023/06/15 05:37:47;;;;;;;5.05;3.50;;;;;;;28.63;45.63;96327.47;5114324;28;20051;-66
2023/06/15 05:40:15;;;;;;;5.43;3.72;;;;;;;28.72;45.43;96320.19;5114233;28;20052;-68
2023/06/15 05:42:44;;;;;;;5.65;3.17;;;;;;;28.91;44.93;96324.25;5114473;28;20058;-68
2023/06/15 05:45:11;;;;;;;7.28;3.50;;;;;;;29.07;44.77;96317.09;5114374;28;20052;-67
2023/06/15 05:47:38;;;;;;;4.13;3.72;;;;;;;28.99;44.76;96329.56;5114205;28;20140;-68
2023/06/15 05:50:06;;;;;;;3.20;3.00;;;;;;;29.25;44.84;96332.91;5114284;28;20040;-68
2023/06/15 05:52:33;;;;;;;4.75;3.30;;;;;;;29.33;44.57;96327.47;5114177;28;20123;-67
2023/06/15 05:55:00;;;;;;;3.38;3.03;;;;;;;29.43;44.50;96329.06;5114212;28;20070;-68
2023/06/15 05:57:27;;;;;;;5.07;3.00;;;;;;;29.29;42.46;96326.16;5114030;27;20132;-67
2023/06/15 05:59:56;;;;;;;5.90;3.08;;;;;;;29.35;44.40;96327.28;5114134;27;20130;-66
2023/06/15 06:02:23;;;;;;;5.35;2.80;;;;;;;29.46;43.66;96324.13;5114182;28;20070;-67
2023/06/15 06:04:50;;;;;;;6.47;2.80;;;;;;;29.49;42.84;96323.75;5114068;28;20131;-67
2023/06/15 06:07:17;;;;;;;3.60;2.88;;;;;;;29.52;43.93;96328.78;5114183;28;20075;-65
2023/06/15 06:09:44;;;;;;;3.97;2.70;;;;;;;29.42;43.65;96324.66;5113931;28;20054;-68
2023/06/15 06:12:13;;;;;;;5.85;3.17;;;;;;;29.43;41.90;96327.19;5113924;28;20048;-66
2023/06/15 06:14:40;;;;;;;6.00;3.20;;;;;;;29.40;42.43;96330.25;5113767;28;20096;-65
2023/06/15 06:17:08;;;;;;;4.78;3.00;;;;;;;29.14;42.06;96329.63;5113662;28;20516;-66
2023/06/15 06:19:35;;;;;;;4.00;3.60;;;;;;;28.95;42.46;96324.75;5113790;28;20047;-67
2023/06/15 06:22:02;;;;;;;3.55;2.70;;;;;;;28.87;42.78;96323.75;5113306;28;20558;-67
2023/06/15 06:24:29;;;;;;;4.95;2.83;;;;;;;29.02;43.06;96328.41;5113719;28;20400;-65
2023/06/15 06:26:57;;;;;;;3.92;2.75;;;;;;;29.02;41.66;96323.03;5113792;28;20082;-66
2023/06/15 06:29:24;;;;;;;5.43;3.40;;;;;;;29.23;43.35;96324.19;5113716;28;20040;-66
2023/06/15 06:31:51;;;;;;;6.53;3.00;;;;;;;29.44;43.02;96325.34;5113573;28;20039;-65
2023/06/15 06:34:19;;;;;;;3.50;3.20;;;;;;;29.46;41.59;96326.81;5113560;28;20104;-65
2023/06/15 06:36:46;;;;;;;4.20;3.03;;;;;;;29.68;43.06;96324.28;5113639;28;20101;-67
2023/06/15 06:39:13;;;;;;;2.78;2.58;;;;;;;29.96;41.99;96328.16;5113520;28;20051;-67
2023/06/15 06:41:40;;;;;;;5.10;2.80;;;;;;;30.20;39.44;96329.75;5113457;28;20135;-65
2023/06/15 06:44:09;;;;;;;4.30;2.97;;;;;;;30.43;40.11;96336.03;5113425;28;20400;-67
2023/06/15 06:46:36;;;;;;;7.07;3.00;;;;;;;30.69;40.96;96337.34;5113595;28;20055;-68
2023/06/15 06:49:03;;;;;;;3.63;2.50;;;;;;;30.81;39.40;96335.00;5113389;28;20496;-68
2023/06/15 06:51:31;;;;;;;5.03;2.72;;;;;;;30.93;39.39;96338.03;5113522;28;20055;-66
2023/06/15 06:53:58;;;;;;;8.40;3.55;;;;;;;31.07;40.20;96339.84;5113460;28;20048;-67
2023/06/15 06:56:26;;;;;;;7.97;2.85;;;;;;;31.27;40.33;96333.75;5113596;28;20070;-67
2023/06/15 06:58:53;;;;;;;3.88;3.30;;;;;;;31.40;37.71;96336.59;5113580;28;20385;-66
2023/06/15 07:01:20;;;;;;;4.35;3.17;;;;;;;31.43;36.21;96334.53;5113320;28;20081;-65
2023/06/15 07:03:47;;;;;;;4.72;3.10;;;;;;;31.36;37.97;96337.22;5113334;28;20047;-67
2023/06/15 07:06:14;;;;;;;4.95;3.30;;;;;;;31.33;36.86;96337.56;5113370;28;20100;-66
2023/06/15 07:08:42;;;;;;;7.57;3.28;;;;;;;31.41;37.37;96337.44;5113299;28;20044;-65
2023/06/15 07:11:09;;;;;;;3.60;2.88;;;;;;;31.50;38.25;96330.03;5113278;28;20058;-65
2023/06/15 07:13:36;;;;;;;9.77;2.88;;;;;;;31.47;36.71;96333.97;5113353;28;20066;-67
2023/06/15 07:16:06;;;;;;;5.13;3.15;;;;;;;31.35;35.08;96332.81;5113276;28;20043;-68
2023/06/15 07:18:33;;;;;;;3.10;2.37;;;;;;;31.37;35.69;96328.91;5113314;28;20515;-67
2023/06/15 07:21:00;;;;;;;4.97;2.92;;;;;;;31.11;35.00;96329.47;5113348;28;20044;-65
2023/06/15 07:23:27;;;;;;;4.90;3.03;;;;;;;30.66;36.36;96327.78;5113199;28;20117;-66
2023/06/15 07:25:55;;;;;;;6.80;3.20;;;;;;;30.55;37.30;96333.69;5113180;28;20040;-66
2023/06/15 07:28:22;;;;;;;5.90;3.20;;;;;;;30.55;38.41;96331.00;5113110;28;20118;-65
2023/06/15 07:30:50;;;;;;;3.65;3.15;;;;;;;30.06;37.91;96326.03;5113145;28;20074;-67
2023/06/15 07:33:17;;;;;;;6.78;3.47;;;;;;;29.49;38.12;96317.53;5113490;28;20044;-67
2023/06/15 07:35:44;;;;;;;6.03;3.53;;;;;;;29.28;39.45;96313.69;5116842;28;20089;-67
2023/06/15 07:38:13;;;;;;;5.93;3.58;;;;;;;29.04;40.76;96322.84;5116752;27;20048;-65
2023/06/15 07:40:40;;;;;;;6.60;4.35;;;;;;;28.74;40.59;96321.66;5116497;27;20079;-67
2023/06/15 07:43:10;;;;;;;5.78;4.13;;;;;;;28.35;41.97;96314.53;5116635;28;20131;-66
2023/06/15 07:45:37;;;;;;;8.50;3.85;;;;;;;28.09;41.70;96313.78;5116818;28;20441;-68
2023/06/15 07:48:04;;;;;;;8.27;4.13;;;;;;;28.06;41.17;96311.44;5116642;28;20104;-65
2023/06/15 07:50:31;;;;;;;6.05;4.18;;;;;;;28.26;41.28;96311.00;5116679;28;20138;-66
2023/06/15 07:52:58;;;;;;;4.35;3.90;;;;;;;28.23;41.04;96312.19;5116564;28;20128;-67
2023/06/15 07:55:25;;;;;;;7.95;3.97;;;;;;;28.25;41.28;96307.50;5116483;28;20044;-68
2023/06/15 07:57:52;;;;;;;9.43;3.88;;;;;;;28.46;42.76;96302.53;5116466;28;20047;-66
2023/06/15 08:00:22;;;;;;;9.63;4.20;;;;;;;28.51;39.49;96297.47;5116671;28;20053;-66
2023/06/15 08:02:49;;;;;;;5.90;3.70;;;;;;;28.50;40.08;96298.44;5116459;28;20096;-66
2023/06/15 08:05:16;;;;;;;7.97;3.28;;;;;;;28.57;40.63;96303.97;5116376;28;20043;-68
2023/06/15 08:07:43;;;;;;;4.93;3.58;;;;;;;28.51;41.47;96306.34;5116344;28;20123;-67
2023/06/15 08:10:11;;;;;;;4.75;3.35;;;;;;;28.62;40.44;96296.19;5116365;28;20446;-68
2023/06/15 08:12:38;;;;;;;5.15;3.13;;;;;;;28.72;40.60;96296.78;5116239;28;20047;-68
2023/06/15 08:15:07;;;;;;;4.63;3.22;;;;;;;28.90;39.42;96298.34;5116206;28;20454;-67
2023/06/15 08:17:35;;;;;;;6.97;3.33;;;;;;;28.74;40.41;96300.16;5115993;28;20100;-68
2023/06/15 08:20:05;;;;;;;5.25;3.25;;;;;;;28.99;39.96;96302.66;5116062;28;20039;-68
2023/06/15 08:22:32;;;;;;;6.72;3.85;;;;;;;29.03;39.37;96307.69;5115935;28;20044;-67
2023/06/15 08:24:59;;;;;;;7.88;3.70;;;;;;;28.85;40.42;96293.50;5115961;28;20593;-67
2023/06/15 08:27:26;;;;;;;7.65;3.78;;;;;;;28.37;38.94;96304.41;5115998;28;20051;-66
2023/06/15 08:29:54;;;;;;;8.65;3.90;;;;;;;28.21;41.36;96297.25;5115827;28;20075;-66
2023/06/15 08:32:21;;;;;;;5.28;2.90;;;;;;;28.41;38.60;96307.59;5115736;28;20079;-65
2023/06/15 08:34:50;;;;;;;5.15;3.33;;;;;;;28.30;38.94;96303.47;5115706;28;20075;-67
2023/06/15 08:37:17;;;;;;;4.97;3.33;;;;;;;28.06;40.75;96305.22;5115779;28;20086;-67
2023/06/15 08:39:44;;;;;;;6.47;3.42;;;;;;;27.81;40.07;96299.97;5115645;28;20571;-68
2023/06/15 08:42:11;;;;;;;5.30;3.20;;;;;;;27.74;41.56;96297.97;5115552;28;20480;-68
2023/06/15 08:44:40;;;;;;;4.45;3.60;;;;;;;27.00;42.88;96301.59;5115472;28;20069;-69
2023/06/15 08:47:07;;;;;;;5.72;3.28;;;;;;;27.24;44.22;96299.91;5115507;28;20048;-67
2023/06/15 08:49:35;;;;;;;6.20;3.40;;;;;;;27.48;40.98;96298.19;5115484;28;20477;-68
2023/06/15 08:52:04;;;;;;;4.13;3.20;;;;;;;27.71;40.25;96300.16;5115326;28;20044;-67
2023/06/15 08:54:32;;;;;;;5.67;3.50;;;;;;;27.55;41.44;96296.47;5115496;28;20043;-68
2023/06/15 08:56:59;;;;;;;10.65;3.92;;;;;;;27.66;43.19;96297.16;5115413;28;20064;-66
2023/06/15 08:59:26;;;;;;;7.22;4.30;;;;;;;27.44;44.27;96297.69;5115453;28;20096;-66
2023/06/15 09:01:55;;;;;;;5.00;3.65;;;;;;;27.30;44.24;96296.50;5115178;28;20044;-69
2023/06/15 09:04:22;;;;;;;7.88;3.55;;;;;;;27.46;43.94;96290.31;5115076;28;20428;-67
2023/06/15 09:06:50;;;;;;;5.50;3.35;;;;;;;27.69;48.05;96294.94;5115266;27;20074;-68
2023/06/15 09:09:19;;;;;;;5.75;3.35;;;;;;;27.89;46.92;96299.91;5114980;28;20044;-67
2023/06/15 09:11:46;;;;;;;5.82;3.33;;;;;;;28.22;46.14;96304.31;5115085;28;20086;-67
2023/06/15 09:14:13;;;;;;;6.65;3.38;;;;;;;28.62;43.50;96294.34;5115080;27;20101;-68
2023/06/15 09:16:42;;;;;;;7.32;3.88;;;;;;;28.88;44.35;96295.84;5114868;28;20047;-67
2023/06/15 09:19:11;;;;;;;4.80;3.40;;;;;;;28.87;41.16;96299.53;5114870;28;20131;-67
2023/06/15 09:21:43;;;;;;;4.93;3.90;;;;;;;28.46;43.33;96295.31;5114764;28;20086;-67
2023/06/15 09:24:12;;;;;;;6.38;4.65;;;;;;;28.47;41.99;96294.28;5114784;28;20048;-68
2023/06/15 09:26:41;;;;;;;6.53;3.63;;;;;;;28.41;42.96;96294.16;5114665;28;20113;-67
2023/06/15 09:29:12;;;;;;;5.53;3.67;;;;;;;28.31;43.82;96289.00;5114561;28;20477;-68
2023/06/15 09:31:41;;;;;;;9.48;4.70;;;;;;;28.28;41.54;96287.47;5114621;28;20540;-66
2023/06/15 09:34:09;;;;;;;9.18;3.42;;;;;;;28.31;44.14;96287.16;5114597;28;20047;-68
2023/06/15 09:36:39;;;;;;;5.70;4.00;;;;;;;28.20;42.84;96290.22;5114518;28;20131;-66
2023/06/15 09:39:09;;;;;;;4.85;4.18;;;;;;;27.75;43.47;96279.97;5114335;28;20090;-67
2023/06/15 09:41:36;;;;;;;6.47;3.87;;;;;;;27.65;46.73;96282.03;5114311;28;20089;-69
2023/06/15 09:44:08;;;;;;;5.28;3.70;;;;;;;27.66;47.13;96281.84;5114330;28;20048;-67
2023/06/15 09:46:38;;;;;;;5.07;4.32;;;;;;;27.40;44.02;96288.28;5114358;28;20045;-66
2023/06/15 09:49:19;;;;;;;4.18;3.67;;;;;;;27.25;44.76;96282.78;5114383;28;20553;-66
2023/06/15 09:51:49;;;;;;;5.93;4.00;;;;;;;27.17;44.20;96277.41;5114337;28;20043;-67
2023/06/15 09:54:18;;;;;;;4.80;3.88;;;;;;;27.00;44.13;96285.50;5114262;28;20051;-65
2023/06/15 09:56:49;;;;;;;5.30;3.37;;;;;;;26.84;44.93;96286.28;5113740;28;20067;-67
2023/06/15 09:59:17;;;;;;;;;;;;;;;26.77;45.20;96278.09;5114481;28;20104;-66
2023/06/15 10:01:46;;;;;;;9.82;4.03;;;;;;;26.90;45.05;96274.91;5114038;28;19919;-68
2023/06/15 10:04:14;;;;;;;7.85;3.42;;;;;;;27.26;50.74;96281.75;5114085;28;20048;-67
2023/06/15 10:06:43;;;;;;;6.80;3.40;;;;;;;27.33;45.18;96276.56;5113957;28;20412;-67
2023/06/15 10:09:13;;;;;;;3.60;3.25;;;;;;;27.16;44.75;96279.28;5114110;28;20452;-67
2023/06/15 10:11:43;;;;;;;8.23;3.43;;;;;;;27.15;45.53;96274.06;5113985;28;20044;-67
2023/06/15 10:14:11;;;;;;;;;;;;;;;27.21;45.44;96271.53;5114398;28;20544;-66
2023/06/15 10:16:41;;;;;;;4.97;3.30;;;;;;;27.23;44.87;96266.84;5113877;28;20381;-68
2023/06/15 10:19:11;;;;;;;4.13;3.45;;;;;;;27.45;44.96;96263.63;5113746;28;20047;-68
2023/06/15 10:21:43;;;;;;;4.72;3.17;;;;;;;27.67;46.09;96256.69;5113899;28;20079;-68
2023/06/15 10:24:13;;;;;;;4.40;3.13;;;;;;;27.87;47.06;96251.72;5113750;28;20051;-68
2023/06/15 10:26:41;;;;;;;5.70;3.50;;;;;;;27.59;43.41;96260.22;5113690;28;20051;-66
2023/06/15 10:29:13;;;;;;;6.10;4.03;;;;;;;27.34;45.14;96257.59;5113826;28;20670;-67
2023/06/15 10:31:47;;;;;;;4.30;3.78;;;;;;;27.19;45.38;96252.09;5113723;28;20135;-66
2023/06/15 10:34:22;;;;;;;4.97;4.18;;;;;;;27.14;46.67;96257.13;5113668;28;20519;-68
2023/06/15 10:37:00;;;;;;;4.35;3.80;;;;;;;27.19;47.92;96251.25;5113639;28;20044;-66
2023/06/15 10:39:33;;;;;;;9.00;4.38;;;;;;;27.08;46.30;96252.44;5113614;28;20079;-67
2023/06/15 10:42:07;;;;;;;5.93;4.30;;;;;;;27.23;46.62;96249.91;5113329;28;20130;-68
2023/06/15 10:44:35;;;;;;;7.65;4.25;;;;;;;27.06;45.20;96251.78;5113521;28;20131;-66
2023/06/15 10:47:11;;;;;;;4.53;4.07;;;;;;;27.17;46.32;96248.75;5113486;28;20560;-67
2023/06/15 10:49:48;;;;;;;5.85;4.18;;;;;;;27.09;45.64;96246.91;5113537;28;20398;-68
2023/06/15 10:52:15;;;;;;;5.93;3.97;;;;;;;26.96;45.33;96247.41;5113377;28;20047;-67
2023/06/15 10:54:42;;;;;;;9.63;3.83;;;;;;;26.65;46.16;96253.44;5113539;28;20074;-67
2023/06/15 10:57:09;;;;;;;4.15;3.58;;;;;;;26.76;48.40;96246.91;5113496;28;20412;-67
2023/06/15 10:59:42;;;;;;;7.50;3.60;;;;;;;26.96;45.41;96246.56;5113404;28;20059;-65
2023/06/15 11:02:42;;;;;;;3.90;3.50;;;;;;;27.04;47.39;96240.38;5113397;28;20097;-68
2023/06/15 11:05:12;;;;;;;9.15;3.75;;;;;;;26.98;46.95;96245.44;5110746;27;20079;-65
2023/06/15 11:07:43;;;;;;;4.60;3.80;;;;;;;26.97;45.47;96243.69;5114454;28;20119;-68
2023/06/15 11:10:15;;;;;;;7.10;3.40;;;;;;;26.91;46.39;96244.38;5117462;28;20043;-66
2023/06/15 11:12:44;;;;;;;6.03;3.10;;;;;;;26.98;47.12;96242.75;5117404;28;20126;-67
2023/06/15 11:15:14;;;;;;;4.95;3.40;;;;;;;26.87;45.39;96240.34;5117474;28;20397;-66
2023/06/15 11:18:02;;;;;;;5.75;3.50;;;;;;;26.75;46.30;96235.34;5117213;28;20484;-66
2023/06/15 11:21:02;;;;;;;5.18;3.17;;;;;;;26.82;44.24;96229.31;5117132;27;20484;-66
2023/06/15 11:23:34;;;;;;;5.25;2.88;;;;;;;26.96;45.09;96223.25;5112919;28;20048;-67
2023/06/15 11:26:04;;;;;;;5.40;3.38;;;;;;;27.08;46.78;96221.09;5117212;28;20052;-67
2023/06/15 11:28:34;;;;;;;4.70;2.70;;;;;;;27.33;48.18;96212.97;5116990;28;20488;-66
2023/06/15 11:31:04;;;;;;;3.17;2.85;;;;;;;27.63;46.13;96215.03;5117169;28;20453;-66
2023/06/15 11:33:36;;;;;;;8.65;2.90;;;;;;;27.85;43.24;96218.84;5117078;28;20048;-68
2023/06/15 11:36:09;;;;;;;4.85;2.80;;;;;;;28.17;45.70;96215.31;5116843;28;20050;-68
2023/06/15 11:38:37;;;;;;;3.80;2.53;;;;;;;28.21;42.46;96222.00;5116795;28;20051;-67
2023/06/15 11:41:06;;;;;;;4.68;2.72;;;;;;;28.06;41.88;96211.16;5116667;27;20066;-68